createdAt,value
2024-02-19T00:01:19.900Z,17.40
2024-02-19T00:03:49.933Z,17.80
2024-02-19T00:06:18.320Z,16.80
2024-02-19T00:08:46.512Z,15.70
2024-02-19T00:11:15.275Z,15.90
2024-02-19T00:13:45.289Z,15.40
2024-02-19T00:16:13.391Z,15.60
2024-02-19T00:18:41.811Z,16.20
2024-02-19T00:21:10.199Z,16.60
2024-02-19T00:23:38.428Z,16.00
2024-02-19T00:26:07.334Z,15.90
2024-02-19T00:28:35.476Z,16.60
2024-02-19T00:31:03.690Z,16.70
2024-02-19T00:33:32.749Z,16.80
2024-02-19T00:36:00.768Z,15.60
2024-02-19T00:38:28.743Z,16.00
2024-02-19T00:40:56.980Z,16.90
2024-02-19T00:43:25.200Z,16.00
2024-02-19T00:45:53.489Z,15.10
2024-02-19T00:48:21.597Z,15.50
2024-02-19T00:50:50.376Z,15.10
2024-02-19T00:53:18.404Z,15.50
2024-02-19T00:55:46.819Z,14.50
2024-02-19T00:58:14.870Z,15.80
2024-02-19T01:00:42.962Z,14.80
2024-02-19T01:03:12.665Z,13.90
2024-02-19T01:05:41.328Z,16.00
2024-02-19T01:08:09.624Z,14.70
2024-02-19T01:10:37.774Z,13.90
2024-02-19T01:13:05.855Z,13.80
2024-02-19T01:15:34.205Z,15.70
2024-02-19T01:18:02.598Z,14.50
2024-02-19T01:20:31.946Z,13.90
2024-02-19T01:23:00.898Z,14.00
2024-02-19T01:25:29.118Z,14.60
2024-02-19T01:27:57.192Z,14.10
2024-02-19T01:30:26.166Z,14.40
2024-02-19T01:32:54.236Z,13.10
2024-02-19T01:35:23.502Z,14.40
2024-02-19T01:37:51.707Z,13.40
2024-02-19T01:40:20.118Z,13.60
2024-02-19T01:42:48.204Z,12.70
2024-02-19T01:45:27.022Z,13.40
2024-02-19T01:48:00.015Z,13.80
2024-02-19T01:50:36.918Z,14.80
2024-02-19T01:53:10.630Z,13.70
2024-02-19T01:55:39.679Z,14.20
2024-02-19T01:58:08.261Z,13.80
2024-02-19T02:00:42.097Z,13.80
2024-02-19T02:03:19.232Z,13.30
2024-02-19T02:05:49.204Z,12.80
2024-02-19T02:08:17.767Z,13.50
2024-02-19T02:10:46.074Z,13.90
2024-02-19T02:13:14.201Z,13.40
2024-02-19T02:15:42.131Z,13.70
2024-02-19T02:18:10.343Z,13.80
2024-02-19T02:20:38.508Z,13.90
2024-02-19T02:23:06.650Z,13.00
2024-02-19T02:25:35.053Z,12.70
2024-02-19T02:28:03.110Z,12.10
2024-02-19T02:30:31.157Z,11.50
2024-02-19T02:32:59.291Z,12.10
2024-02-19T02:35:27.427Z,12.00
2024-02-19T02:37:55.868Z,12.40
2024-02-19T02:40:23.950Z,11.60
2024-02-19T02:42:52.337Z,12.10
2024-02-19T02:45:20.440Z,11.90
2024-02-19T02:47:48.345Z,12.30
2024-02-19T02:50:16.820Z,11.60
2024-02-19T02:52:45.214Z,11.60
2024-02-19T02:55:13.542Z,10.80
2024-02-19T02:57:41.765Z,11.00
2024-02-19T03:00:10.649Z,11.50
2024-02-19T03:02:38.789Z,11.40
2024-02-19T03:05:07.490Z,12.20
2024-02-19T03:07:36.072Z,11.40
2024-02-19T03:10:04.590Z,11.90
2024-02-19T03:12:32.985Z,12.30
2024-02-19T03:15:01.406Z,13.10
2024-02-19T03:17:29.841Z,13.70
2024-02-19T03:19:57.957Z,13.00
2024-02-19T03:22:27.275Z,14.00
2024-02-19T03:24:55.842Z,13.20
2024-02-19T03:27:23.945Z,12.70
2024-02-19T03:29:52.444Z,12.60
2024-02-19T03:32:20.256Z,11.90
2024-02-19T03:34:48.182Z,12.30
2024-02-19T03:37:17.379Z,13.20
2024-02-19T03:39:45.761Z,11.40
2024-02-19T03:42:13.837Z,11.40
2024-02-19T03:44:41.954Z,11.50
2024-02-19T03:47:10.073Z,11.30
2024-02-19T03:49:38.151Z,11.70
2024-02-19T03:52:06.305Z,11.90
2024-02-19T03:54:34.726Z,11.00
2024-02-19T03:57:02.793Z,11.20
2024-02-19T03:59:32.987Z,12.90
2024-02-19T04:02:01.039Z,13.60
2024-02-19T04:04:29.570Z,14.20
2024-02-19T04:06:58.137Z,15.30
2024-02-19T04:09:26.617Z,16.90
2024-02-19T04:11:54.656Z,16.80
2024-02-19T04:14:22.822Z,17.90
2024-02-19T04:16:51.055Z,16.70
2024-02-19T04:19:19.187Z,15.70
2024-02-19T04:21:47.443Z,15.40
2024-02-19T04:24:15.736Z,15.40
2024-02-19T04:26:44.066Z,15.10
2024-02-19T04:29:12.379Z,14.10
2024-02-19T04:31:42.250Z,14.50
2024-02-19T04:34:10.793Z,14.40
2024-02-19T04:36:38.862Z,13.10
2024-02-19T04:39:06.820Z,13.70
2024-02-19T04:41:34.829Z,12.40
2024-02-19T04:44:02.919Z,13.50
2024-02-19T04:46:34.042Z,13.90
2024-02-19T04:49:02.083Z,11.90
2024-02-19T04:51:30.530Z,13.20
2024-02-19T04:53:58.552Z,13.40
2024-02-19T04:56:26.756Z,12.80
2024-02-19T04:58:56.255Z,13.90
2024-02-19T05:01:24.516Z,13.10
2024-02-19T05:03:55.709Z,14.50
2024-02-19T05:06:24.496Z,14.00
2024-02-19T05:08:52.904Z,16.20
2024-02-19T05:11:20.973Z,16.30
2024-02-19T05:13:49.016Z,16.10
2024-02-19T05:16:17.330Z,16.50
2024-02-19T05:18:46.215Z,14.70
2024-02-19T05:21:15.181Z,14.80
2024-02-19T05:23:43.297Z,12.30
2024-02-19T05:26:11.290Z,10.90
2024-02-19T05:28:39.642Z,12.70
2024-02-19T05:31:07.980Z,14.70
2024-02-19T05:33:36.022Z,14.70
2024-02-19T05:36:04.594Z,15.40
2024-02-19T05:38:33.547Z,14.70
2024-02-19T05:41:02.512Z,13.60
2024-02-19T05:43:30.397Z,12.00
2024-02-19T05:45:58.339Z,12.70
2024-02-19T05:48:26.480Z,14.80
2024-02-19T05:50:54.599Z,16.00
2024-02-19T05:53:23.135Z,14.80
2024-02-19T05:55:50.993Z,13.00
2024-02-19T05:58:19.354Z,13.50
2024-02-19T06:00:48.089Z,13.30
2024-02-19T06:03:16.364Z,12.80
2024-02-19T06:05:44.541Z,11.60
2024-02-19T06:08:12.498Z,11.80
2024-02-19T06:10:41.087Z,11.00
2024-02-19T06:13:09.897Z,12.30
2024-02-19T06:15:38.255Z,12.00
2024-02-19T06:18:07.225Z,11.40
2024-02-19T06:20:36.175Z,10.40
2024-02-19T06:23:05.146Z,11.30
2024-02-19T06:25:34.613Z,11.40
2024-02-19T06:28:03.733Z,13.50
2024-02-19T06:30:31.814Z,13.70
2024-02-19T06:33:00.240Z,14.70
2024-02-19T06:35:28.897Z,15.60
2024-02-19T06:37:57.235Z,12.80
2024-02-19T06:40:25.607Z,13.30
2024-02-19T06:42:55.367Z,13.90
2024-02-19T06:45:24.053Z,13.20
2024-02-19T06:47:52.219Z,13.80
2024-02-19T06:50:20.540Z,12.60
2024-02-19T06:52:48.584Z,16.70
2024-02-19T06:55:17.735Z,14.00
2024-02-19T06:57:46.201Z,13.60
2024-02-19T07:00:14.889Z,14.30
2024-02-19T07:02:43.002Z,13.50
2024-02-19T07:05:11.304Z,12.80
2024-02-19T07:07:39.408Z,12.50
2024-02-19T07:10:08.483Z,13.40
2024-02-19T07:12:36.678Z,13.40
2024-02-19T07:15:05.146Z,13.60
2024-02-19T07:17:33.293Z,13.80
2024-02-19T07:20:01.558Z,13.10
2024-02-19T07:22:29.972Z,11.20
2024-02-19T07:25:09.390Z,12.30
2024-02-19T07:27:42.194Z,11.30
2024-02-19T07:30:12.371Z,12.60
2024-02-19T07:32:40.660Z,11.80
2024-02-19T07:35:09.013Z,14.00
2024-02-19T07:37:37.389Z,12.20
2024-02-19T07:40:07.710Z,12.20
2024-02-19T07:45:08.766Z,12.50
2024-02-19T07:47:37.263Z,10.70
2024-02-19T07:50:05.795Z,10.60
2024-02-19T07:52:34.190Z,11.30
2024-02-19T07:55:02.236Z,12.40
2024-02-19T07:57:30.565Z,12.50
2024-02-19T07:59:59.318Z,13.00
2024-02-19T08:02:27.525Z,11.90
2024-02-19T08:04:57.007Z,11.60
2024-02-19T08:07:25.277Z,11.90
2024-02-19T08:09:53.538Z,12.50
2024-02-19T08:12:22.907Z,11.60
2024-02-19T08:14:51.746Z,12.00
2024-02-19T08:17:20.218Z,11.90
2024-02-19T08:19:48.178Z,13.70
2024-02-19T08:22:16.206Z,13.00
2024-02-19T08:24:44.538Z,14.70
2024-02-19T08:27:12.696Z,14.30
2024-02-19T08:29:41.031Z,14.60
2024-02-19T08:32:09.646Z,13.50
2024-02-19T08:34:37.893Z,16.10
2024-02-19T08:37:07.169Z,16.80
2024-02-19T08:39:35.377Z,16.10
2024-02-19T08:42:03.681Z,15.30
2024-02-19T08:44:31.846Z,15.60
2024-02-19T08:47:06.536Z,15.40
2024-02-19T08:49:35.129Z,16.80
2024-02-19T08:52:03.464Z,15.50
2024-02-19T08:54:31.486Z,17.00
2024-02-19T08:56:59.787Z,15.20
2024-02-19T08:59:28.054Z,13.90
2024-02-19T09:01:56.577Z,17.10
2024-02-19T09:04:27.694Z,18.10
2024-02-19T09:06:56.391Z,20.90
2024-02-19T09:09:24.471Z,20.10
2024-02-19T09:11:52.661Z,19.90
2024-02-19T09:14:21.170Z,18.90
2024-02-19T09:16:50.156Z,19.60
2024-02-19T09:19:19.933Z,18.40
2024-02-19T09:21:48.196Z,17.80
2024-02-19T09:24:16.946Z,15.80
2024-02-19T09:26:45.138Z,15.30
2024-02-19T09:29:13.123Z,16.30
2024-02-19T09:31:41.549Z,16.60
2024-02-19T09:34:09.644Z,17.60
2024-02-19T09:36:37.860Z,18.30
2024-02-19T09:39:07.685Z,16.90
2024-02-19T09:41:35.961Z,17.60
2024-02-19T09:44:04.417Z,16.50
2024-02-19T09:46:32.588Z,16.20
2024-02-19T09:49:02.082Z,13.90
2024-02-19T09:51:37.192Z,12.70
2024-02-19T09:54:10.723Z,12.00
2024-02-19T09:56:39.120Z,11.70
2024-02-19T09:59:08.261Z,11.30
2024-02-19T10:01:36.312Z,10.80
2024-02-19T10:04:07.677Z,11.10
2024-02-19T10:06:38.146Z,11.40
2024-02-19T10:09:09.421Z,8.40
2024-02-19T10:11:38.023Z,6.40
2024-02-19T10:14:06.757Z,5.60
2024-02-19T10:16:35.087Z,5.70
2024-02-19T10:19:07.236Z,4.60
2024-02-19T10:21:36.121Z,5.70
2024-02-19T10:24:04.591Z,4.70
2024-02-19T10:26:32.812Z,4.70
2024-02-19T10:29:01.767Z,4.60
2024-02-19T10:31:32.189Z,4.90
2024-02-19T10:34:00.693Z,4.90
2024-02-19T10:36:29.344Z,4.70
2024-02-19T10:38:57.397Z,4.60
2024-02-19T10:41:25.925Z,4.70
2024-02-19T10:43:54.635Z,5.00
2024-02-19T10:46:25.051Z,4.40
2024-02-19T10:48:54.056Z,5.40
2024-02-19T10:51:23.656Z,4.70
2024-02-19T10:54:05.719Z,4.50
2024-02-19T10:56:44.510Z,4.40
2024-02-19T10:59:13.487Z,5.20
2024-02-19T11:01:42.724Z,5.40
2024-02-19T11:04:22.361Z,5.00
2024-02-19T11:06:56.525Z,4.40
2024-02-19T11:09:33.562Z,4.40
2024-02-19T11:12:03.973Z,4.70
2024-02-19T11:14:35.967Z,4.80
2024-02-19T11:17:04.984Z,4.40
2024-02-19T11:19:40.345Z,5.30
2024-02-19T11:22:11.589Z,4.90
2024-02-19T11:24:41.926Z,5.10
2024-02-19T11:27:10.285Z,5.10
2024-02-19T11:29:46.601Z,5.60
2024-02-19T11:32:22.200Z,5.60
2024-02-19T11:34:52.699Z,4.60
2024-02-19T11:37:21.651Z,5.30
2024-02-19T11:39:50.444Z,5.10
2024-02-19T11:42:19.867Z,5.10
2024-02-19T11:44:48.661Z,5.40
2024-02-19T11:47:17.596Z,4.30
2024-02-19T11:49:47.466Z,4.80
2024-02-19T11:52:16.640Z,5.10
2024-02-19T11:54:45.007Z,4.90
2024-02-19T11:57:15.295Z,4.70
2024-02-19T11:59:46.407Z,4.70
2024-02-19T12:02:14.710Z,5.20
2024-02-19T12:04:43.101Z,5.00
2024-02-19T12:07:12.297Z,4.80
2024-02-19T12:09:41.235Z,5.00
2024-02-19T12:12:09.955Z,5.10
2024-02-19T12:14:37.862Z,5.70
2024-02-19T12:17:07.134Z,4.90
2024-02-19T12:19:36.195Z,5.50
2024-02-19T12:22:04.844Z,5.60
2024-02-19T12:24:33.252Z,5.50
2024-02-19T12:27:01.630Z,5.90
2024-02-19T12:29:29.725Z,4.80
2024-02-19T12:31:57.828Z,5.60
2024-02-19T12:34:25.929Z,6.60
2024-02-19T12:36:54.630Z,4.70
2024-02-19T12:39:27.056Z,4.90
2024-02-19T12:41:56.362Z,4.90
2024-02-19T12:44:24.856Z,5.50
2024-02-19T12:46:52.896Z,5.60
2024-02-19T12:49:21.006Z,5.50
2024-02-19T12:51:49.669Z,5.20
2024-02-19T12:54:19.695Z,5.70
2024-02-19T12:56:48.732Z,6.40
2024-02-19T12:59:17.036Z,5.70
2024-02-19T13:01:45.846Z,6.00
2024-02-19T13:04:14.022Z,6.60
2024-02-19T13:06:42.175Z,6.30
2024-02-19T13:09:12.034Z,6.40
2024-02-19T13:11:40.956Z,6.60
2024-02-19T13:14:09.200Z,7.10
2024-02-19T13:16:37.349Z,7.80
2024-02-19T13:19:05.586Z,7.90
2024-02-19T13:21:34.079Z,7.50
2024-02-19T13:24:02.078Z,7.70
2024-02-19T13:26:30.197Z,8.40
2024-02-19T13:28:58.577Z,8.70
2024-02-19T13:31:26.632Z,8.20
2024-02-19T13:33:54.987Z,8.40
2024-02-19T13:36:23.106Z,8.90
2024-02-19T13:38:51.238Z,9.30
2024-02-19T13:41:19.429Z,8.80
2024-02-19T13:43:48.067Z,9.20
2024-02-19T13:46:18.495Z,8.40
2024-02-19T13:51:25.285Z,9.60
2024-02-19T13:53:53.869Z,10.50
2024-02-19T13:56:22.224Z,10.80
2024-02-19T13:58:50.266Z,11.20
2024-02-19T14:01:18.327Z,11.20
2024-02-19T14:03:49.040Z,10.80
2024-02-19T14:06:17.592Z,11.40
2024-02-19T14:08:45.848Z,12.80
2024-02-19T14:11:14.165Z,11.40
2024-02-19T14:13:46.951Z,12.30
2024-02-19T14:18:51.398Z,11.80
2024-02-19T14:21:19.578Z,12.40
2024-02-19T14:23:48.152Z,12.20
2024-02-19T14:26:16.342Z,12.90
2024-02-19T14:28:44.560Z,12.50
2024-02-19T14:31:12.691Z,11.70
2024-02-19T14:33:40.910Z,13.30
2024-02-19T14:36:10.457Z,13.90
2024-02-19T14:38:39.802Z,14.10
2024-02-19T14:41:10.590Z,14.10
2024-02-19T14:43:38.674Z,14.80
2024-02-19T14:46:08.266Z,15.60
2024-02-19T14:48:36.909Z,15.00
2024-02-19T14:51:06.922Z,14.80
2024-02-19T14:53:35.393Z,16.00
2024-02-19T14:56:04.784Z,14.70
2024-02-19T14:58:34.112Z,15.70
2024-02-19T15:01:02.686Z,15.60
2024-02-19T15:03:31.203Z,15.30
2024-02-19T15:05:59.761Z,14.80
2024-02-19T15:08:27.984Z,14.90
2024-02-19T15:10:56.195Z,14.90
2024-02-19T15:13:24.412Z,15.20
2024-02-19T15:15:52.972Z,14.90
2024-02-19T15:18:24.482Z,15.20
2024-02-19T15:20:53.772Z,16.50
2024-02-19T15:23:22.007Z,15.40
2024-02-19T15:25:50.156Z,15.90
2024-02-19T15:28:19.357Z,14.40
2024-02-19T15:30:47.716Z,14.40
2024-02-19T15:33:15.774Z,16.30
2024-02-19T15:35:45.092Z,14.60
2024-02-19T15:38:13.973Z,13.40
2024-02-19T15:40:42.436Z,12.90
2024-02-19T15:43:10.834Z,14.90
2024-02-19T15:45:40.604Z,17.40
2024-02-19T15:48:08.670Z,21.50
2024-02-19T15:50:36.786Z,16.70
2024-02-19T15:53:06.486Z,24.00
2024-02-19T15:55:35.368Z,21.90
2024-02-19T15:58:03.576Z,21.90
2024-02-19T16:00:36.787Z,18.90
2024-02-19T16:03:06.738Z,19.70
2024-02-19T16:05:35.021Z,19.50
2024-02-19T16:08:24.259Z,19.40
2024-02-19T16:10:52.340Z,18.90
2024-02-19T16:13:20.646Z,20.30
2024-02-19T16:15:48.651Z,19.30
2024-02-19T16:18:17.089Z,26.30
2024-02-19T16:20:47.547Z,21.40
2024-02-19T16:25:44.773Z,23.10
2024-02-19T16:28:13.983Z,22.20
2024-02-19T16:30:42.122Z,22.10
2024-02-19T16:33:10.485Z,23.10
2024-02-19T16:35:38.828Z,22.80
2024-02-19T16:38:07.861Z,21.50
2024-02-19T16:40:36.199Z,21.60
2024-02-19T16:43:06.131Z,19.90
2024-02-19T16:45:35.550Z,28.50
2024-02-19T16:48:09.968Z,24.50
2024-02-19T16:50:40.151Z,20.90
2024-02-19T16:53:08.099Z,18.90
2024-02-19T16:55:36.714Z,26.30
2024-02-19T16:58:05.343Z,20.30
2024-02-19T17:00:33.518Z,19.60
2024-02-19T17:03:01.914Z,20.40
2024-02-19T17:05:30.293Z,19.30
2024-02-19T17:07:59.763Z,20.30
2024-02-19T17:10:28.803Z,19.40
2024-02-19T17:12:56.998Z,18.50
2024-02-19T17:15:25.137Z,21.00
2024-02-19T17:17:53.487Z,22.40
2024-02-19T17:20:22.362Z,19.20
2024-02-19T17:22:52.664Z,18.40
2024-02-19T17:25:21.088Z,18.30
2024-02-19T17:27:49.958Z,19.80
2024-02-19T17:30:18.356Z,19.80
2024-02-19T17:32:46.649Z,19.90
2024-02-19T17:35:14.842Z,21.50
2024-02-19T17:37:43.163Z,20.50
2024-02-19T17:40:12.628Z,17.90
2024-02-19T17:42:40.690Z,17.10
2024-02-19T17:45:09.253Z,17.80
2024-02-19T17:47:37.350Z,18.10
2024-02-19T17:50:07.335Z,17.10
2024-02-19T17:55:05.371Z,16.80
2024-02-19T17:57:33.324Z,17.10
2024-02-19T18:00:01.331Z,17.30
2024-02-19T18:02:40.707Z,17.10
2024-02-19T18:05:09.557Z,18.50
2024-02-19T18:07:38.167Z,18.10
2024-02-19T18:10:09.225Z,17.90
2024-02-19T18:12:37.851Z,18.40
2024-02-19T18:15:06.239Z,20.60
2024-02-19T18:17:34.916Z,24.20
2024-02-19T18:20:05.853Z,29.60
2024-02-19T18:22:34.747Z,28.00
2024-02-19T18:25:05.736Z,25.80
2024-02-19T18:27:35.796Z,24.00
2024-02-19T18:30:10.704Z,21.90
2024-02-19T18:32:41.943Z,21.70
2024-02-19T18:35:10.783Z,21.20
2024-02-19T18:37:39.258Z,19.40
2024-02-19T18:40:10.166Z,18.20
2024-02-19T18:42:42.604Z,17.60
2024-02-19T18:45:11.252Z,17.20
2024-02-19T18:47:41.760Z,16.90
2024-02-19T18:50:10.241Z,20.20
2024-02-19T18:52:39.125Z,24.50
2024-02-19T18:55:07.852Z,23.70
2024-02-19T18:57:36.049Z,18.60
2024-02-19T19:00:10.338Z,19.30
2024-02-19T19:02:39.989Z,18.00
2024-02-19T19:05:08.499Z,21.20
2024-02-19T19:07:37.962Z,18.80
2024-02-19T19:10:06.868Z,18.80
2024-02-19T19:12:35.448Z,19.90
2024-02-19T19:15:04.973Z,19.90
2024-02-19T19:17:33.436Z,20.60
2024-02-19T19:20:09.290Z,20.00
2024-02-19T19:22:37.618Z,19.70
2024-02-19T19:25:06.399Z,19.90
2024-02-19T19:27:34.975Z,18.70
2024-02-19T19:30:03.423Z,18.80
2024-02-19T19:32:35.870Z,18.40
2024-02-19T19:35:04.452Z,18.00
2024-02-19T19:37:33.100Z,19.10
2024-02-19T19:40:05.335Z,18.70
2024-02-19T19:42:33.805Z,18.70
2024-02-19T19:45:01.985Z,20.00
2024-02-19T19:47:34.435Z,23.80
2024-02-19T19:50:02.791Z,21.50
2024-02-19T19:52:35.287Z,21.20
2024-02-19T19:55:04.761Z,20.90
2024-02-19T19:57:32.980Z,21.50
2024-02-19T20:00:01.371Z,22.50
2024-02-19T20:02:29.711Z,22.00
2024-02-19T20:04:57.749Z,24.20
2024-02-19T20:07:30.501Z,22.70
2024-02-19T20:10:00.703Z,23.00
2024-02-19T20:12:28.816Z,22.20
2024-02-19T20:14:59.133Z,21.30
2024-02-19T20:17:29.475Z,23.20
2024-02-19T20:19:57.577Z,21.90
2024-02-19T20:22:29.331Z,19.90
2024-02-19T20:24:57.754Z,20.50
2024-02-19T20:27:26.074Z,20.40
2024-02-19T20:29:55.303Z,20.10
2024-02-19T20:32:23.544Z,19.40
2024-02-19T20:34:52.366Z,19.80
2024-02-19T20:37:21.376Z,20.60
2024-02-19T20:39:49.964Z,20.00
2024-02-19T20:42:18.602Z,22.60
2024-02-19T20:44:49.842Z,22.20
2024-02-19T20:47:18.880Z,21.00
2024-02-19T20:49:48.078Z,22.20
2024-02-19T20:52:16.805Z,21.90
2024-02-19T20:54:45.530Z,22.30
2024-02-19T20:57:13.521Z,19.70
2024-02-19T20:59:41.622Z,19.70
2024-02-19T21:02:09.967Z,19.80
2024-02-19T21:04:38.284Z,19.30
2024-02-19T21:07:06.816Z,20.20
2024-02-19T21:09:36.381Z,20.00
2024-02-19T21:12:05.028Z,19.80
2024-02-19T21:14:33.051Z,20.00
2024-02-19T21:17:01.236Z,20.00
2024-02-19T21:19:29.260Z,19.60
2024-02-19T21:21:58.223Z,18.50
2024-02-19T21:24:27.299Z,18.30
2024-02-19T21:26:58.216Z,18.80
2024-02-19T21:29:30.629Z,17.70
2024-02-19T21:31:59.352Z,16.90
2024-02-19T21:34:27.483Z,17.40
2024-02-19T21:36:58.070Z,18.40
2024-02-19T21:39:26.779Z,16.10
2024-02-19T21:41:55.254Z,17.00
2024-02-19T21:44:23.451Z,15.60
2024-02-19T21:46:51.482Z,15.90
2024-02-19T21:49:21.697Z,15.20
2024-02-19T21:51:50.279Z,15.40
2024-02-19T21:54:18.869Z,13.60
2024-02-19T21:56:47.615Z,15.20
2024-02-19T21:59:15.966Z,14.30
2024-02-19T22:01:45.218Z,14.70
2024-02-19T22:04:13.527Z,15.90
2024-02-19T22:06:41.772Z,15.40
2024-02-19T22:09:09.929Z,16.60
2024-02-19T22:11:38.209Z,16.00
2024-02-19T22:14:06.311Z,15.20
2024-02-19T22:16:34.630Z,15.00
2024-02-19T22:19:02.854Z,14.50
2024-02-19T22:21:31.845Z,14.90
2024-02-19T22:24:01.473Z,14.60
2024-02-19T22:26:29.779Z,14.80
2024-02-19T22:28:57.986Z,13.60
2024-02-19T22:31:27.425Z,14.50
2024-02-19T22:33:55.692Z,14.10
2024-02-19T22:36:24.191Z,13.50
2024-02-19T22:38:52.769Z,13.40
2024-02-19T22:41:21.004Z,14.70
2024-02-19T22:43:49.033Z,15.00
2024-02-19T22:46:17.236Z,16.00
2024-02-19T22:48:45.493Z,14.60
2024-02-19T22:51:13.732Z,15.20
2024-02-19T22:53:41.796Z,15.10
2024-02-19T22:56:09.910Z,15.50
2024-02-19T22:58:38.384Z,16.40
2024-02-19T23:01:06.778Z,14.90
2024-02-19T23:03:34.978Z,16.30
2024-02-19T23:06:04.405Z,16.10
2024-02-19T23:08:32.802Z,14.80
2024-02-19T23:11:00.886Z,15.00
2024-02-19T23:13:29.079Z,14.50
2024-02-19T23:15:57.243Z,16.00
2024-02-19T23:18:25.856Z,15.60
2024-02-19T23:20:53.994Z,15.80
2024-02-19T23:23:22.119Z,15.40
2024-02-19T23:25:54.309Z,15.40
2024-02-19T23:28:23.374Z,16.20
2024-02-19T23:30:55.289Z,15.60
2024-02-19T23:33:24.205Z,16.50
2024-02-19T23:35:52.551Z,15.00
2024-02-19T23:38:23.460Z,15.30
2024-02-19T23:40:51.666Z,16.30
2024-02-19T23:43:19.979Z,15.20
2024-02-19T23:45:48.227Z,14.90
2024-02-19T23:48:17.590Z,14.30
2024-02-19T23:50:45.834Z,15.00
2024-02-19T23:53:16.329Z,16.30
2024-02-19T23:55:45.170Z,15.90
2024-02-19T23:58:13.542Z,16.20
